createdAt,value
2023-01-31T02:19:37.094Z,99563.59
2023-01-31T02:22:31.145Z,99563.51
2023-01-31T02:25:06.743Z,99565.41
2023-01-31T02:27:35.183Z,99565.44
2023-01-31T02:30:31.468Z,99569.31
2023-01-31T02:33:13.790Z,99569.61
2023-01-31T02:36:04.062Z,99567.71
2023-01-31T02:39:00.135Z,99569.39
2023-01-31T02:41:52.604Z,99566.41
2023-01-31T02:44:42.997Z,99568.85
2023-01-31T02:47:15.568Z,99564.14
2023-01-31T02:49:49.413Z,99562.59
2023-01-31T02:52:36.913Z,99561.70
2023-01-31T02:55:31.690Z,99564.05
2023-01-31T02:58:00.505Z,99561.48
2023-01-31T03:00:29.748Z,99559.55
2023-01-31T03:02:58.365Z,99561.73
2023-01-31T03:05:27.487Z,99560.33
2023-01-31T03:07:58.152Z,99568.80
2023-01-31T03:10:50.905Z,99567.91
2023-01-31T03:13:26.309Z,99570.81
2023-01-31T03:17:00.196Z,99574.92
2023-01-31T03:19:32.907Z,99570.73
2023-01-31T03:22:04.191Z,99572.93
2023-01-31T03:24:34.827Z,99570.75
2023-01-31T03:27:03.610Z,99573.48
2023-01-31T03:29:34.757Z,99572.85
2023-01-31T03:32:12.790Z,99570.05
2023-01-31T03:34:41.373Z,99569.08
2023-01-31T03:37:32.755Z,99565.57
2023-01-31T03:40:15.216Z,99562.13
2023-01-31T03:42:47.132Z,99564.98
2023-01-31T03:45:20.481Z,99564.73
2023-01-31T03:47:51.390Z,99558.91
2023-01-31T03:50:26.132Z,99559.37
2023-01-31T03:53:05.129Z,99559.31
2023-01-31T03:55:40.183Z,99565.56
2023-01-31T03:58:08.960Z,99565.70
2023-01-31T04:00:37.548Z,99566.67
2023-01-31T04:03:18.809Z,99570.16
2023-01-31T04:05:49.321Z,99567.89
2023-01-31T04:08:18.293Z,99571.03
2023-01-31T04:10:51.408Z,99567.77
2023-01-31T04:13:19.860Z,99566.21
2023-01-31T04:15:48.836Z,99567.75
2023-01-31T04:18:17.907Z,99563.84
2023-01-31T04:20:46.992Z,99564.61
2023-01-31T04:23:15.335Z,99564.91
2023-01-31T04:25:44.167Z,99562.94
2023-01-31T04:28:13.082Z,99560.87
2023-01-31T04:30:41.776Z,99566.94
2023-01-31T04:33:10.554Z,99571.55
2023-01-31T04:35:42.202Z,99569.16
2023-01-31T04:38:10.513Z,99568.15
2023-01-31T04:40:39.304Z,99577.56
2023-01-31T04:43:08.280Z,99577.70
2023-01-31T04:45:36.630Z,99589.20
2023-01-31T04:48:05.349Z,99591.52
2023-01-31T04:50:33.969Z,99593.98
2023-01-31T04:53:02.409Z,99593.84
2023-01-31T04:55:30.882Z,99597.64
2023-01-31T04:57:59.468Z,99599.08
2023-01-31T05:00:27.953Z,99600.09
2023-01-31T05:02:56.758Z,99600.80
2023-01-31T05:05:25.798Z,99602.24
2023-01-31T05:07:54.226Z,99593.48
2023-01-31T05:10:22.586Z,99594.59
2023-01-31T05:12:51.831Z,99597.39
2023-01-31T05:15:21.445Z,99601.62
2023-01-31T05:17:54.039Z,99601.71
2023-01-31T05:20:22.370Z,99595.16
2023-01-31T05:22:50.970Z,99592.44
2023-01-31T05:25:20.523Z,99597.94
2023-01-31T05:27:49.118Z,99598.35
2023-01-31T05:30:19.054Z,99603.86
2023-01-31T05:32:49.293Z,99609.37
2023-01-31T05:35:18.039Z,99606.51
2023-01-31T05:37:46.540Z,99610.02
2023-01-31T05:40:16.849Z,99611.48
2023-01-31T05:42:45.579Z,99605.65
2023-01-31T05:45:16.796Z,99609.63
2023-01-31T05:47:47.675Z,99610.55
2023-01-31T05:50:17.938Z,99611.80
2023-01-31T05:52:59.785Z,99610.35
2023-01-31T05:55:28.289Z,99607.14
2023-01-31T05:57:56.896Z,99607.85
2023-01-31T06:00:25.724Z,99605.61
2023-01-31T06:02:57.720Z,99608.29
2023-01-31T06:05:26.457Z,99612.15
2023-01-31T10:16:38.353Z,99598.41
2023-01-31T10:19:10.020Z,99597.50
2023-01-31T10:21:44.318Z,99593.54
2023-01-31T10:24:32.558Z,99595.27
2023-01-31T10:27:04.692Z,99590.77
2023-01-31T10:29:39.260Z,99594.59
2023-01-31T10:32:33.906Z,99592.15
2023-01-31T10:35:15.031Z,99580.73
2023-01-31T10:37:49.475Z,99580.45
2023-01-31T10:40:42.086Z,99577.67
2023-01-31T10:43:19.344Z,99577.20
2023-01-31T10:45:51.179Z,99573.52
2023-01-31T10:48:22.293Z,99569.39
2023-01-31T10:51:12.107Z,99572.07
2023-01-31T10:53:49.152Z,99574.81
2023-01-31T10:56:17.536Z,99574.58
2023-01-31T10:58:46.134Z,99572.54
2023-01-31T11:01:15.525Z,99568.64
2023-01-31T11:03:54.269Z,99572.73
2023-01-31T11:06:22.899Z,99570.13
2023-01-31T11:08:55.699Z,99567.19
2023-01-31T11:11:25.444Z,99564.86
2023-01-31T11:14:07.712Z,99562.91
2023-01-31T11:16:38.707Z,99560.77
2023-01-31T11:19:37.869Z,99560.98
2023-01-31T11:22:06.518Z,99559.31
2023-01-31T11:24:35.106Z,99556.58
2023-01-31T11:27:10.442Z,99557.11
2023-01-31T11:29:46.371Z,99559.92
2023-01-31T11:32:22.589Z,99556.95
2023-01-31T11:35:01.111Z,99557.25
2023-01-31T11:37:31.557Z,99556.23
2023-01-31T11:40:30.941Z,99553.55
2023-01-31T11:43:03.702Z,99554.27
2023-01-31T11:45:33.462Z,99551.60
2023-01-31T11:48:23.652Z,99545.35
2023-01-31T11:50:52.772Z,99548.42
2023-01-31T11:53:22.508Z,99546.34
2023-01-31T11:55:51.922Z,99547.08
2023-01-31T11:58:33.213Z,99548.34
2023-01-31T12:01:23.101Z,99550.97
2023-01-31T12:04:06.849Z,99550.83
2023-01-31T12:06:39.591Z,99553.67
2023-01-31T12:09:21.230Z,99554.84
2023-01-31T12:11:53.582Z,99558.20
2023-01-31T12:14:22.142Z,99555.73
2023-01-31T12:16:55.266Z,99558.10
2023-01-31T12:19:43.141Z,99556.56
2023-01-31T12:22:25.458Z,99566.55
2023-01-31T12:24:53.839Z,99557.30
2023-01-31T12:27:43.860Z,99561.80
2023-01-31T12:30:25.262Z,99561.52
2023-01-31T12:33:06.569Z,99566.73
2023-01-31T12:35:57.512Z,99570.74
2023-01-31T12:38:40.068Z,99574.27
2023-01-31T12:41:30.329Z,99570.41
2023-01-31T12:44:04.771Z,99566.80
2023-01-31T12:47:14.963Z,99565.12
2023-01-31T12:49:59.372Z,99564.85
2023-01-31T12:52:52.110Z,99562.91
2023-01-31T12:55:33.003Z,99564.17
2023-01-31T12:58:27.814Z,99567.47
2023-01-31T13:01:06.032Z,99569.56
2023-01-31T13:03:48.540Z,99567.77
2023-01-31T13:06:28.812Z,99560.30
2023-01-31T13:09:17.096Z,99558.71
2023-01-31T13:11:55.605Z,99561.88
2023-01-31T13:14:25.937Z,99558.08
2023-01-31T13:17:00.443Z,99560.13
2023-01-31T13:19:39.862Z,99559.10
2023-01-31T13:22:33.283Z,99562.48
2023-01-31T13:25:29.391Z,99567.88
2023-01-31T13:28:01.987Z,99561.73
2023-01-31T13:30:30.764Z,99563.92
2023-01-31T13:33:01.103Z,99562.40
2023-01-31T13:35:41.226Z,99562.98
2023-01-31T13:38:13.801Z,99563.90
2023-01-31T13:40:52.346Z,99563.46
2023-01-31T13:43:21.217Z,99567.09
2023-01-31T13:46:01.367Z,99571.34
2023-01-31T13:48:41.341Z,99568.59
2023-01-31T13:51:29.737Z,99571.27
2023-01-31T13:54:02.073Z,99572.91
2023-01-31T13:56:34.485Z,99575.72
2023-01-31T13:59:03.076Z,99579.61
2023-01-31T14:01:35.919Z,99581.95
2023-01-31T14:04:17.712Z,99584.81
2023-01-31T14:07:06.145Z,99588.16
2023-01-31T14:09:36.850Z,99588.20
2023-01-31T14:12:17.429Z,99587.20
2023-01-31T14:14:51.557Z,99590.48
2023-01-31T14:17:34.124Z,99595.15
2023-01-31T14:20:24.746Z,99594.51
2023-01-31T14:23:31.306Z,99593.20
2023-01-31T14:25:59.653Z,99595.83
2023-01-31T14:28:28.269Z,99599.05
2023-01-31T14:30:56.821Z,99596.88
2023-01-31T14:33:25.515Z,99588.73
2023-01-31T14:36:52.896Z,99594.45
2023-01-31T14:39:38.178Z,99591.85
2023-01-31T14:42:34.073Z,99588.73
2023-01-31T14:45:14.584Z,99595.11
2023-01-31T14:47:55.075Z,99593.52
2023-01-31T14:50:43.652Z,99594.02
2023-01-31T14:53:55.488Z,99592.15
2023-01-31T14:56:45.450Z,99594.50
2023-01-31T14:59:40.297Z,99598.94
2023-01-31T15:02:42.702Z,99597.38
2023-01-31T15:05:16.764Z,99598.92
2023-01-31T15:08:03.421Z,99597.87
2023-01-31T15:11:02.627Z,99600.06
2023-01-31T15:13:37.605Z,99601.97
2023-01-31T15:16:28.346Z,99601.31
2023-01-31T15:19:19.585Z,99603.17
2023-01-31T15:21:52.294Z,99604.20
2023-01-31T15:24:24.220Z,99602.11
2023-01-31T15:26:53.659Z,99605.48
2023-01-31T15:29:56.615Z,99609.23
2023-01-31T15:32:28.080Z,99612.81
2023-01-31T15:35:06.940Z,99609.59
2023-01-31T15:37:35.546Z,99610.45
2023-01-31T15:40:12.947Z,99611.30
2023-01-31T15:42:41.602Z,99612.60
2023-01-31T15:45:23.120Z,99604.19
2023-01-31T15:48:27.548Z,99608.88
2023-01-31T15:50:58.625Z,99614.61
2023-01-31T15:53:28.497Z,99613.40
2023-01-31T15:55:58.817Z,99614.91
2023-01-31T15:58:28.067Z,99612.16
2023-01-31T16:00:58.059Z,99610.45
2023-01-31T16:03:27.966Z,99608.57
2023-01-31T16:05:57.769Z,99607.70
2023-01-31T16:08:26.848Z,99602.36
2023-01-31T16:10:56.671Z,99600.80
2023-01-31T16:13:25.363Z,99605.73
2023-01-31T16:15:53.752Z,99598.39
2023-01-31T16:18:22.222Z,99599.99
2023-01-31T16:20:51.317Z,99603.84
2023-01-31T16:23:33.505Z,99606.71
2023-01-31T16:26:05.237Z,99610.08
2023-01-31T16:28:44.773Z,99612.96
2023-01-31T16:31:15.944Z,99616.90
2023-01-31T16:33:54.396Z,99615.73
2023-01-31T16:36:34.161Z,99619.81
2023-01-31T16:39:05.013Z,99620.02
2023-01-31T16:41:51.921Z,99612.36
2023-01-31T16:44:21.557Z,99615.57
2023-01-31T16:46:50.636Z,99617.41
2023-01-31T16:49:29.560Z,99617.73
2023-01-31T16:52:18.999Z,99610.19
2023-01-31T16:54:51.432Z,99601.98
2023-01-31T16:57:38.298Z,99603.84
2023-01-31T17:00:28.469Z,99602.09
2023-01-31T17:02:58.645Z,99604.27
2023-01-31T17:05:35.971Z,99600.69
2023-01-31T17:08:05.256Z,99608.67
2023-01-31T17:10:35.064Z,99605.80
2023-01-31T17:13:20.362Z,99608.70
2023-01-31T17:15:49.807Z,99608.73
2023-01-31T17:18:18.374Z,99611.45
2023-01-31T17:20:48.965Z,99606.90
2023-01-31T17:23:17.466Z,99607.47
2023-01-31T17:25:46.169Z,99601.70
2023-01-31T17:28:15.072Z,99603.85
2023-01-31T17:30:45.328Z,99602.16
2023-01-31T17:33:15.697Z,99603.20
2023-01-31T17:35:47.162Z,99604.53
2023-01-31T17:38:15.874Z,99606.20
2023-01-31T17:40:44.355Z,99604.13
2023-01-31T17:43:17.317Z,99607.99
2023-01-31T17:45:45.849Z,99606.24
2023-01-31T17:48:20.824Z,99608.27
2023-01-31T17:50:54.526Z,99611.84
2023-01-31T17:53:22.905Z,99614.06
2023-01-31T17:55:51.206Z,99612.01
2023-01-31T17:58:19.627Z,99607.11
2023-01-31T18:00:48.120Z,99606.27
2023-01-31T18:03:20.777Z,99609.97
2023-01-31T22:16:19.407Z,99575.05
2023-01-31T22:18:48.031Z,99582.11
2023-01-31T22:21:20.947Z,99577.30
2023-01-31T22:23:50.979Z,99576.31
2023-01-31T22:26:26.810Z,99576.55
2023-01-31T22:28:56.441Z,99577.79
2023-01-31T22:31:24.833Z,99577.14
2023-01-31T22:33:53.258Z,99576.02
2023-01-31T22:36:21.872Z,99585.29
2023-01-31T22:38:50.387Z,99576.81
2023-01-31T22:41:20.110Z,99575.00
2023-01-31T22:43:52.496Z,99567.35
2023-01-31T22:46:23.473Z,99563.93
2023-01-31T22:48:52.043Z,99561.20
2023-01-31T22:51:25.005Z,99565.77
2023-01-31T22:53:54.529Z,99569.63
2023-01-31T22:56:24.755Z,99570.98
2023-01-31T22:59:03.024Z,99570.36
2023-01-31T23:01:35.106Z,99568.83
2023-01-31T23:04:06.294Z,99571.33
2023-01-31T23:06:35.882Z,99573.33
2023-01-31T23:09:04.396Z,99577.06
2023-01-31T23:11:33.149Z,99571.63
2023-01-31T23:14:01.651Z,99569.80
2023-01-31T23:16:48.574Z,99565.44
2023-01-31T23:19:19.209Z,99569.22
2023-01-31T23:21:49.611Z,99567.14
2023-01-31T23:24:19.296Z,99568.75
2023-01-31T23:26:47.760Z,99565.11
2023-01-31T23:29:16.098Z,99568.65
2023-01-31T23:31:46.234Z,99566.58
2023-01-31T23:34:14.722Z,99562.80
2023-01-31T23:36:43.162Z,99564.16
2023-01-31T23:39:11.682Z,99564.84
2023-01-31T23:41:40.086Z,99566.38
2023-01-31T23:44:08.577Z,99565.35
2023-01-31T23:46:37.748Z,99566.27
2023-01-31T23:49:06.544Z,99563.91
2023-01-31T23:51:35.304Z,99574.32
2023-01-31T23:54:03.773Z,99572.32
2023-01-31T23:56:32.431Z,99572.74
2023-01-31T23:59:00.803Z,99572.80
